sensor_id;sensor_type;location;lat;lon;timestamp;P1;durP1;ratioP1;P2;durP2;ratioP2
12474;SDS011;6302;42.624;23.334;2023-03-01T00:01:20;6.03;;;5.00;;
12474;SDS011;6302;42.624;23.334;2023-03-01T00:03:50;5.13;;;4.63;;
12474;SDS011;6302;42.624;23.334;2023-03-01T00:06:17;8.20;;;5.50;;
12474;SDS011;6302;42.624;23.334;2023-03-01T00:08:46;5.77;;;5.20;;
12474;SDS011;6302;42.624;23.334;2023-03-01T00:11:14;5.67;;;5.07;;
12474;SDS011;6302;42.624;23.334;2023-03-01T00:13:43;5.60;;;4.93;;
12474;SDS011;6302;42.624;23.334;2023-03-01T00:16:11;6.07;;;5.13;;
12474;SDS011;6302;42.624;23.334;2023-03-01T00:18:39;21.63;;;12.73;;
12474;SDS011;6302;42.624;23.334;2023-03-01T00:21:06;10.33;;;7.60;;
12474;SDS011;6302;42.624;23.334;2023-03-01T00:23:33;14.57;;;9.47;;
12474;SDS011;6302;42.624;23.334;2023-03-01T00:26:02;9.40;;;7.10;;
12474;SDS011;6302;42.624;23.334;2023-03-01T00:28:31;8.80;;;7.87;;
12474;SDS011;6302;42.624;23.334;2023-03-01T00:31:02;14.17;;;9.73;;
12474;SDS011;6302;42.624;23.334;2023-03-01T00:33:29;9.27;;;8.27;;
12474;SDS011;6302;42.624;23.334;2023-03-01T00:35:57;10.17;;;9.03;;
12474;SDS011;6302;42.624;23.334;2023-03-01T00:38:24;10.73;;;9.00;;
12474;SDS011;6302;42.624;23.334;2023-03-01T00:40:51;14.63;;;10.50;;
12474;SDS011;6302;42.624;23.334;2023-03-01T00:43:19;11.00;;;8.93;;
12474;SDS011;6302;42.624;23.334;2023-03-01T00:45:46;10.20;;;9.03;;
12474;SDS011;6302;42.624;23.334;2023-03-01T00:48:13;10.23;;;7.87;;
12474;SDS011;6302;42.624;23.334;2023-03-01T00:50:40;14.67;;;10.80;;
12474;SDS011;6302;42.624;23.334;2023-03-01T00:53:07;7.17;;;6.47;;
12474;SDS011;6302;42.624;23.334;2023-03-01T00:55:33;13.43;;;8.63;;
12474;SDS011;6302;42.624;23.334;2023-03-01T00:58:02;10.07;;;7.13;;
12474;SDS011;6302;42.624;23.334;2023-03-01T01:00:30;11.77;;;6.83;;
12474;SDS011;6302;42.624;23.334;2023-03-01T01:02:57;12.53;;;7.23;;
12474;SDS011;6302;42.624;23.334;2023-03-01T01:05:24;4.47;;;3.40;;
12474;SDS011;6302;42.624;23.334;2023-03-01T01:07:50;2.83;;;2.27;;
12474;SDS011;6302;42.624;23.334;2023-03-01T01:10:17;8.50;;;5.47;;
12474;SDS011;6302;42.624;23.334;2023-03-01T01:12:44;2.10;;;2.00;;
12474;SDS011;6302;42.624;23.334;2023-03-01T01:15:11;2.03;;;1.93;;
12474;SDS011;6302;42.624;23.334;2023-03-01T01:17:42;5.53;;;3.60;;
12474;SDS011;6302;42.624;23.334;2023-03-01T01:20:10;9.03;;;5.03;;
12474;SDS011;6302;42.624;23.334;2023-03-01T01:22:37;8.80;;;4.60;;
12474;SDS011;6302;42.624;23.334;2023-03-01T01:25:04;4.27;;;3.37;;
12474;SDS011;6302;42.624;23.334;2023-03-01T01:27:31;4.80;;;3.17;;
12474;SDS011;6302;42.624;23.334;2023-03-01T01:29:58;7.80;;;4.47;;
12474;SDS011;6302;42.624;23.334;2023-03-01T01:32:25;7.50;;;5.33;;
12474;SDS011;6302;42.624;23.334;2023-03-01T01:34:53;5.27;;;4.77;;
12474;SDS011;6302;42.624;23.334;2023-03-01T01:37:20;12.43;;;7.70;;
12474;SDS011;6302;42.624;23.334;2023-03-01T01:39:47;10.23;;;8.37;;
12474;SDS011;6302;42.624;23.334;2023-03-01T01:42:15;5.73;;;4.93;;
12474;SDS011;6302;42.624;23.334;2023-03-01T01:44:44;5.80;;;4.30;;
12474;SDS011;6302;42.624;23.334;2023-03-01T01:47:13;5.03;;;4.53;;
12474;SDS011;6302;42.624;23.334;2023-03-01T01:49:43;3.43;;;3.13;;
12474;SDS011;6302;42.624;23.334;2023-03-01T01:52:14;3.80;;;3.50;;
12474;SDS011;6302;42.624;23.334;2023-03-01T01:54:46;3.30;;;3.00;;
12474;SDS011;6302;42.624;23.334;2023-03-01T01:57:18;3.87;;;3.57;;
12474;SDS011;6302;42.624;23.334;2023-03-01T01:59:49;2.90;;;2.70;;
12474;SDS011;6302;42.624;23.334;2023-03-01T02:02:19;3.50;;;3.20;;
12474;SDS011;6302;42.624;23.334;2023-03-01T02:04:49;3.30;;;3.00;;
12474;SDS011;6302;42.624;23.334;2023-03-01T02:07:23;3.00;;;2.80;;
12474;SDS011;6302;42.624;23.334;2023-03-01T02:09:51;2.67;;;2.47;;
12474;SDS011;6302;42.624;23.334;2023-03-01T02:12:19;2.67;;;2.47;;
12474;SDS011;6302;42.624;23.334;2023-03-01T02:14:49;2.90;;;2.70;;
12474;SDS011;6302;42.624;23.334;2023-03-01T02:17:16;3.10;;;2.87;;
12474;SDS011;6302;42.624;23.334;2023-03-01T02:19:47;2.57;;;2.37;;
12474;SDS011;6302;42.624;23.334;2023-03-01T02:22:27;2.87;;;2.67;;
12474;SDS011;6302;42.624;23.334;2023-03-01T02:25:02;2.63;;;2.43;;
12474;SDS011;6302;42.624;23.334;2023-03-01T02:27:40;3.23;;;3.03;;
12474;SDS011;6302;42.624;23.334;2023-03-01T02:30:16;2.90;;;2.70;;
12474;SDS011;6302;42.624;23.334;2023-03-01T02:32:44;2.53;;;2.37;;
12474;SDS011;6302;42.624;23.334;2023-03-01T02:35:11;2.70;;;2.50;;
12474;SDS011;6302;42.624;23.334;2023-03-01T02:37:41;3.10;;;2.90;;
12474;SDS011;6302;42.624;23.334;2023-03-01T02:40:10;3.10;;;2.90;;
12474;SDS011;6302;42.624;23.334;2023-03-01T02:42:43;3.40;;;3.10;;
12474;SDS011;6302;42.624;23.334;2023-03-01T02:45:17;3.03;;;2.83;;
12474;SDS011;6302;42.624;23.334;2023-03-01T02:47:44;3.47;;;3.17;;
12474;SDS011;6302;42.624;23.334;2023-03-01T02:50:14;3.17;;;2.97;;
12474;SDS011;6302;42.624;23.334;2023-03-01T02:52:52;4.13;;;3.27;;
12474;SDS011;6302;42.624;23.334;2023-03-01T02:55:23;3.40;;;3.20;;
12474;SDS011;6302;42.624;23.334;2023-03-01T02:57:50;5.87;;;3.60;;
12474;SDS011;6302;42.624;23.334;2023-03-01T03:00:18;3.40;;;3.20;;
12474;SDS011;6302;42.624;23.334;2023-03-01T03:02:47;3.60;;;3.30;;
12474;SDS011;6302;42.624;23.334;2023-03-01T03:05:16;3.17;;;2.97;;
12474;SDS011;6302;42.624;23.334;2023-03-01T03:07:44;3.50;;;3.20;;
12474;SDS011;6302;42.624;23.334;2023-03-01T03:10:14;4.40;;;4.10;;
12474;SDS011;6302;42.624;23.334;2023-03-01T03:12:44;3.60;;;3.30;;
12474;SDS011;6302;42.624;23.334;2023-03-01T03:15:15;3.70;;;3.17;;
12474;SDS011;6302;42.624;23.334;2023-03-01T03:17:44;3.63;;;3.33;;
12474;SDS011;6302;42.624;23.334;2023-03-01T03:20:11;4.20;;;3.90;;
12474;SDS011;6302;42.624;23.334;2023-03-01T03:22:44;4.30;;;4.00;;
12474;SDS011;6302;42.624;23.334;2023-03-01T03:25:11;4.07;;;3.77;;
12474;SDS011;6302;42.624;23.334;2023-03-01T03:27:38;4.63;;;4.23;;
12474;SDS011;6302;42.624;23.334;2023-03-01T03:30:07;3.70;;;3.40;;
12474;SDS011;6302;42.624;23.334;2023-03-01T03:32:37;3.57;;;3.27;;
12474;SDS011;6302;42.624;23.334;2023-03-01T03:35:08;3.93;;;3.27;;
12474;SDS011;6302;42.624;23.334;2023-03-01T03:37:36;3.90;;;3.60;;
12474;SDS011;6302;42.624;23.334;2023-03-01T03:40:26;3.90;;;3.60;;
12474;SDS011;6302;42.624;23.334;2023-03-01T03:42:54;3.80;;;3.50;;
12474;SDS011;6302;42.624;23.334;2023-03-01T03:45:21;3.50;;;3.20;;
12474;SDS011;6302;42.624;23.334;2023-03-01T03:47:48;3.87;;;3.50;;
12474;SDS011;6302;42.624;23.334;2023-03-01T03:50:16;4.07;;;3.70;;
12474;SDS011;6302;42.624;23.334;2023-03-01T03:52:44;3.80;;;3.50;;
12474;SDS011;6302;42.624;23.334;2023-03-01T03:55:11;4.90;;;4.40;;
12474;SDS011;6302;42.624;23.334;2023-03-01T03:57:39;4.30;;;3.90;;
12474;SDS011;6302;42.624;23.334;2023-03-01T04:00:08;4.23;;;3.93;;
12474;SDS011;6302;42.624;23.334;2023-03-01T04:02:38;3.90;;;3.60;;
12474;SDS011;6302;42.624;23.334;2023-03-01T04:05:05;4.37;;;3.97;;
12474;SDS011;6302;42.624;23.334;2023-03-01T04:07:34;5.17;;;4.30;;
12474;SDS011;6302;42.624;23.334;2023-03-01T04:10:02;3.97;;;3.67;;
12474;SDS011;6302;42.624;23.334;2023-03-01T04:12:31;3.83;;;3.53;;
12474;SDS011;6302;42.624;23.334;2023-03-01T04:14:59;3.50;;;3.20;;
12474;SDS011;6302;42.624;23.334;2023-03-01T04:17:37;3.83;;;3.53;;
12474;SDS011;6302;42.624;23.334;2023-03-01T04:20:05;4.07;;;3.77;;
12474;SDS011;6302;42.624;23.334;2023-03-01T04:22:34;5.07;;;3.70;;
12474;SDS011;6302;42.624;23.334;2023-03-01T04:25:01;4.77;;;4.27;;
12474;SDS011;6302;42.624;23.334;2023-03-01T04:27:31;4.00;;;3.60;;
12474;SDS011;6302;42.624;23.334;2023-03-01T04:29:58;4.97;;;4.07;;
12474;SDS011;6302;42.624;23.334;2023-03-01T04:32:25;4.37;;;3.97;;
12474;SDS011;6302;42.624;23.334;2023-03-01T04:34:51;4.00;;;3.60;;
12474;SDS011;6302;42.624;23.334;2023-03-01T04:37:18;4.50;;;3.97;;
12474;SDS011;6302;42.624;23.334;2023-03-01T04:39:46;3.77;;;3.47;;
12474;SDS011;6302;42.624;23.334;2023-03-01T04:42:13;4.23;;;3.87;;
12474;SDS011;6302;42.624;23.334;2023-03-01T04:44:40;3.97;;;3.60;;
12474;SDS011;6302;42.624;23.334;2023-03-01T04:47:07;3.73;;;3.37;;
12474;SDS011;6302;42.624;23.334;2023-03-01T04:49:34;3.70;;;3.40;;
12474;SDS011;6302;42.624;23.334;2023-03-01T04:52:00;3.97;;;3.47;;
12474;SDS011;6302;42.624;23.334;2023-03-01T04:54:28;4.53;;;4.13;;
12474;SDS011;6302;42.624;23.334;2023-03-01T04:56:56;4.37;;;3.70;;
12474;SDS011;6302;42.624;23.334;2023-03-01T04:59:23;4.33;;;3.10;;
12474;SDS011;6302;42.624;23.334;2023-03-01T05:01:50;4.10;;;3.70;;
12474;SDS011;6302;42.624;23.334;2023-03-01T05:04:17;4.00;;;3.70;;
12474;SDS011;6302;42.624;23.334;2023-03-01T05:06:44;3.47;;;3.17;;
12474;SDS011;6302;42.624;23.334;2023-03-01T05:09:11;3.67;;;3.37;;
12474;SDS011;6302;42.624;23.334;2023-03-01T05:11:37;3.77;;;3.47;;
12474;SDS011;6302;42.624;23.334;2023-03-01T05:14:06;4.67;;;4.23;;
12474;SDS011;6302;42.624;23.334;2023-03-01T05:16:33;3.80;;;3.50;;
12474;SDS011;6302;42.624;23.334;2023-03-01T05:19:02;3.90;;;3.60;;
12474;SDS011;6302;42.624;23.334;2023-03-01T05:21:36;3.50;;;3.20;;
12474;SDS011;6302;42.624;23.334;2023-03-01T05:24:23;4.53;;;3.63;;
12474;SDS011;6302;42.624;23.334;2023-03-01T05:26:50;3.30;;;3.00;;
12474;SDS011;6302;42.624;23.334;2023-03-01T05:29:19;4.47;;;3.50;;
12474;SDS011;6302;42.624;23.334;2023-03-01T05:31:50;3.90;;;3.50;;
12474;SDS011;6302;42.624;23.334;2023-03-01T05:34:18;3.23;;;2.93;;
12474;SDS011;6302;42.624;23.334;2023-03-01T05:36:48;3.37;;;3.07;;
12474;SDS011;6302;42.624;23.334;2023-03-01T05:39:16;2.67;;;2.47;;
12474;SDS011;6302;42.624;23.334;2023-03-01T05:41:43;3.40;;;2.53;;
12474;SDS011;6302;42.624;23.334;2023-03-01T05:44:09;2.90;;;2.60;;
12474;SDS011;6302;42.624;23.334;2023-03-01T05:46:39;3.47;;;2.70;;
12474;SDS011;6302;42.624;23.334;2023-03-01T05:49:06;2.20;;;1.93;;
12474;SDS011;6302;42.624;23.334;2023-03-01T05:51:33;1.90;;;1.80;;
12474;SDS011;6302;42.624;23.334;2023-03-01T05:54:00;1.73;;;1.63;;
12474;SDS011;6302;42.624;23.334;2023-03-01T05:56:26;1.43;;;1.40;;
12474;SDS011;6302;42.624;23.334;2023-03-01T05:58:54;1.80;;;1.70;;
12474;SDS011;6302;42.624;23.334;2023-03-01T06:01:21;1.80;;;1.70;;
12474;SDS011;6302;42.624;23.334;2023-03-01T06:03:49;2.43;;;1.77;;
12474;SDS011;6302;42.624;23.334;2023-03-01T06:06:15;1.60;;;1.50;;
12474;SDS011;6302;42.624;23.334;2023-03-01T06:08:42;1.70;;;1.60;;
12474;SDS011;6302;42.624;23.334;2023-03-01T06:11:09;2.40;;;2.10;;
12474;SDS011;6302;42.624;23.334;2023-03-01T06:13:36;2.07;;;1.83;;
12474;SDS011;6302;42.624;23.334;2023-03-01T06:16:04;1.77;;;1.67;;
12474;SDS011;6302;42.624;23.334;2023-03-01T06:18:31;1.80;;;1.70;;
12474;SDS011;6302;42.624;23.334;2023-03-01T06:20:59;2.10;;;2.00;;
12474;SDS011;6302;42.624;23.334;2023-03-01T06:23:26;2.30;;;2.20;;
12474;SDS011;6302;42.624;23.334;2023-03-01T06:25:53;2.77;;;2.17;;
12474;SDS011;6302;42.624;23.334;2023-03-01T06:28:20;3.13;;;2.80;;
12474;SDS011;6302;42.624;23.334;2023-03-01T06:30:48;1.80;;;1.70;;
12474;SDS011;6302;42.624;23.334;2023-03-01T06:33:16;1.80;;;1.70;;
12474;SDS011;6302;42.624;23.334;2023-03-01T06:35:45;2.47;;;2.27;;
12474;SDS011;6302;42.624;23.334;2023-03-01T06:38:13;1.80;;;1.70;;
12474;SDS011;6302;42.624;23.334;2023-03-01T06:40:42;2.00;;;1.90;;
12474;SDS011;6302;42.624;23.334;2023-03-01T06:43:09;2.10;;;2.00;;
12474;SDS011;6302;42.624;23.334;2023-03-01T06:45:36;2.00;;;1.80;;
12474;SDS011;6302;42.624;23.334;2023-03-01T06:48:03;2.50;;;2.30;;
12474;SDS011;6302;42.624;23.334;2023-03-01T06:50:30;2.60;;;2.40;;
12474;SDS011;6302;42.624;23.334;2023-03-01T06:52:58;2.63;;;2.27;;
12474;SDS011;6302;42.624;23.334;2023-03-01T06:55:26;2.90;;;2.60;;
12474;SDS011;6302;42.624;23.334;2023-03-01T06:57:56;2.40;;;2.20;;
12474;SDS011;6302;42.624;23.334;2023-03-01T07:00:23;2.67;;;2.47;;
12474;SDS011;6302;42.624;23.334;2023-03-01T07:02:51;3.27;;;2.97;;
12474;SDS011;6302;42.624;23.334;2023-03-01T07:05:18;2.10;;;2.00;;
12474;SDS011;6302;42.624;23.334;2023-03-01T07:07:45;2.80;;;2.60;;
12474;SDS011;6302;42.624;23.334;2023-03-01T07:10:12;2.43;;;2.23;;
12474;SDS011;6302;42.624;23.334;2023-03-01T07:12:40;2.30;;;2.10;;
12474;SDS011;6302;42.624;23.334;2023-03-01T07:15:08;2.53;;;2.33;;
12474;SDS011;6302;42.624;23.334;2023-03-01T07:17:35;2.90;;;2.63;;
12474;SDS011;6302;42.624;23.334;2023-03-01T07:20:02;2.20;;;2.00;;
12474;SDS011;6302;42.624;23.334;2023-03-01T07:22:30;2.57;;;2.37;;
12474;SDS011;6302;42.624;23.334;2023-03-01T07:24:56;2.20;;;2.10;;
12474;SDS011;6302;42.624;23.334;2023-03-01T07:27:23;2.20;;;2.10;;
12474;SDS011;6302;42.624;23.334;2023-03-01T07:29:51;2.23;;;1.83;;
12474;SDS011;6302;42.624;23.334;2023-03-01T07:32:18;2.60;;;2.00;;
12474;SDS011;6302;42.624;23.334;2023-03-01T07:34:45;2.20;;;2.10;;
12474;SDS011;6302;42.624;23.334;2023-03-01T07:37:12;1.93;;;1.83;;
12474;SDS011;6302;42.624;23.334;2023-03-01T07:39:38;2.43;;;2.23;;
12474;SDS011;6302;42.624;23.334;2023-03-01T07:42:05;2.60;;;2.00;;
12474;SDS011;6302;42.624;23.334;2023-03-01T07:44:32;1.90;;;1.80;;
12474;SDS011;6302;42.624;23.334;2023-03-01T07:47:00;2.67;;;2.47;;
12474;SDS011;6302;42.624;23.334;2023-03-01T07:49:29;4.77;;;2.70;;
12474;SDS011;6302;42.624;23.334;2023-03-01T07:51:55;3.13;;;2.27;;
12474;SDS011;6302;42.624;23.334;2023-03-01T07:54:22;4.20;;;2.23;;
12474;SDS011;6302;42.624;23.334;2023-03-01T07:56:49;2.50;;;2.30;;
12474;SDS011;6302;42.624;23.334;2023-03-01T07:59:16;2.43;;;2.23;;
12474;SDS011;6302;42.624;23.334;2023-03-01T08:01:43;4.20;;;2.50;;
12474;SDS011;6302;42.624;23.334;2023-03-01T08:04:11;2.80;;;2.40;;
12474;SDS011;6302;42.624;23.334;2023-03-01T08:06:37;2.40;;;2.20;;
12474;SDS011;6302;42.624;23.334;2023-03-01T08:09:04;2.50;;;2.30;;
12474;SDS011;6302;42.624;23.334;2023-03-01T08:11:32;2.60;;;2.40;;
12474;SDS011;6302;42.624;23.334;2023-03-01T08:13:59;3.43;;;2.50;;
12474;SDS011;6302;42.624;23.334;2023-03-01T08:16:27;2.50;;;2.30;;
12474;SDS011;6302;42.624;23.334;2023-03-01T08:18:54;2.80;;;2.60;;
12474;SDS011;6302;42.624;23.334;2023-03-01T08:21:25;2.93;;;2.73;;
12474;SDS011;6302;42.624;23.334;2023-03-01T08:23:52;2.70;;;2.50;;
12474;SDS011;6302;42.624;23.334;2023-03-01T08:26:20;3.23;;;3.03;;
12474;SDS011;6302;42.624;23.334;2023-03-01T08:28:47;3.00;;;2.80;;
12474;SDS011;6302;42.624;23.334;2023-03-01T08:31:17;3.30;;;3.07;;
12474;SDS011;6302;42.624;23.334;2023-03-01T08:33:45;2.90;;;2.70;;
12474;SDS011;6302;42.624;23.334;2023-03-01T08:36:16;3.57;;;2.63;;
12474;SDS011;6302;42.624;23.334;2023-03-01T08:38:44;3.90;;;3.47;;
12474;SDS011;6302;42.624;23.334;2023-03-01T08:41:11;3.63;;;3.33;;
12474;SDS011;6302;42.624;23.334;2023-03-01T08:43:39;4.17;;;3.50;;
12474;SDS011;6302;42.624;23.334;2023-03-01T08:46:06;2.77;;;2.57;;
12474;SDS011;6302;42.624;23.334;2023-03-01T08:48:33;2.97;;;2.70;;
12474;SDS011;6302;42.624;23.334;2023-03-01T08:51:06;3.00;;;2.70;;
12474;SDS011;6302;42.624;23.334;2023-03-01T08:53:34;3.27;;;2.97;;
12474;SDS011;6302;42.624;23.334;2023-03-01T08:56:02;3.17;;;2.90;;
12474;SDS011;6302;42.624;23.334;2023-03-01T08:58:30;2.97;;;2.77;;
12474;SDS011;6302;42.624;23.334;2023-03-01T09:00:57;3.27;;;2.83;;
12474;SDS011;6302;42.624;23.334;2023-03-01T09:03:24;2.60;;;2.40;;
12474;SDS011;6302;42.624;23.334;2023-03-01T09:05:51;3.23;;;2.93;;
12474;SDS011;6302;42.624;23.334;2023-03-01T09:08:18;2.50;;;2.30;;
12474;SDS011;6302;42.624;23.334;2023-03-01T09:10:46;2.83;;;2.63;;
12474;SDS011;6302;42.624;23.334;2023-03-01T09:13:14;4.40;;;2.80;;
12474;SDS011;6302;42.624;23.334;2023-03-01T09:15:41;2.87;;;2.67;;
12474;SDS011;6302;42.624;23.334;2023-03-01T09:18:08;2.63;;;2.43;;
12474;SDS011;6302;42.624;23.334;2023-03-01T09:20:34;2.40;;;2.23;;
12474;SDS011;6302;42.624;23.334;2023-03-01T09:23:01;2.43;;;2.23;;
12474;SDS011;6302;42.624;23.334;2023-03-01T09:25:28;2.70;;;2.50;;
12474;SDS011;6302;42.624;23.334;2023-03-01T09:27:55;2.80;;;2.60;;
12474;SDS011;6302;42.624;23.334;2023-03-01T09:30:23;3.87;;;2.80;;
12474;SDS011;6302;42.624;23.334;2023-03-01T09:32:50;2.80;;;2.23;;
12474;SDS011;6302;42.624;23.334;2023-03-01T09:35:17;2.60;;;2.40;;
12474;SDS011;6302;42.624;23.334;2023-03-01T09:37:45;2.70;;;2.50;;
12474;SDS011;6302;42.624;23.334;2023-03-01T09:40:12;3.10;;;2.80;;
12474;SDS011;6302;42.624;23.334;2023-03-01T09:42:46;3.00;;;2.80;;
12474;SDS011;6302;42.624;23.334;2023-03-01T09:45:21;2.57;;;2.40;;
12474;SDS011;6302;42.624;23.334;2023-03-01T09:47:56;3.10;;;2.90;;
12474;SDS011;6302;42.624;23.334;2023-03-01T09:50:23;3.03;;;2.73;;
12474;SDS011;6302;42.624;23.334;2023-03-01T09:52:54;4.17;;;2.63;;
12474;SDS011;6302;42.624;23.334;2023-03-01T09:55:29;5.97;;;2.67;;
12474;SDS011;6302;42.624;23.334;2023-03-01T09:58:01;3.60;;;3.30;;
12474;SDS011;6302;42.624;23.334;2023-03-01T10:00:39;3.67;;;2.97;;
12474;SDS011;6302;42.624;23.334;2023-03-01T10:03:12;3.03;;;2.83;;
12474;SDS011;6302;42.624;23.334;2023-03-01T10:05:46;3.17;;;2.70;;
12474;SDS011;6302;42.624;23.334;2023-03-01T10:08:27;3.40;;;3.10;;
12474;SDS011;6302;42.624;23.334;2023-03-01T10:11:00;3.30;;;3.00;;
12474;SDS011;6302;42.624;23.334;2023-03-01T10:13:29;5.03;;;3.37;;
12474;SDS011;6302;42.624;23.334;2023-03-01T10:16:03;3.47;;;3.17;;
12474;SDS011;6302;42.624;23.334;2023-03-01T10:18:38;4.47;;;3.20;;
12474;SDS011;6302;42.624;23.334;2023-03-01T10:21:11;3.67;;;3.37;;
12474;SDS011;6302;42.624;23.334;2023-03-01T10:23:42;3.23;;;2.90;;
12474;SDS011;6302;42.624;23.334;2023-03-01T10:26:12;3.23;;;2.97;;
12474;SDS011;6302;42.624;23.334;2023-03-01T10:28:59;3.27;;;2.97;;
12474;SDS011;6302;42.624;23.334;2023-03-01T10:31:35;3.50;;;3.20;;
12474;SDS011;6302;42.624;23.334;2023-03-01T10:34:08;4.03;;;3.60;;
12474;SDS011;6302;42.624;23.334;2023-03-01T10:36:38;4.03;;;3.63;;
12474;SDS011;6302;42.624;23.334;2023-03-01T10:39:10;3.50;;;3.20;;
12474;SDS011;6302;42.624;23.334;2023-03-01T10:41:44;4.03;;;3.60;;
12474;SDS011;6302;42.624;23.334;2023-03-01T10:44:34;4.87;;;3.90;;
12474;SDS011;6302;42.624;23.334;2023-03-01T10:47:04;3.63;;;3.30;;
12474;SDS011;6302;42.624;23.334;2023-03-01T10:49:39;4.43;;;4.03;;
12474;SDS011;6302;42.624;23.334;2023-03-01T10:52:18;3.70;;;3.40;;
12474;SDS011;6302;42.624;23.334;2023-03-01T10:54:51;3.90;;;3.50;;
12474;SDS011;6302;42.624;23.334;2023-03-01T11:00:15;4.33;;;3.30;;
12474;SDS011;6302;42.624;23.334;2023-03-01T11:03:01;3.97;;;3.57;;
12474;SDS011;6302;42.624;23.334;2023-03-01T11:05:36;3.73;;;3.43;;
12474;SDS011;6302;42.624;23.334;2023-03-01T11:08:03;4.23;;;3.67;;
12474;SDS011;6302;42.624;23.334;2023-03-01T11:10:30;3.63;;;3.33;;
12474;SDS011;6302;42.624;23.334;2023-03-01T11:13:08;4.20;;;3.60;;
12474;SDS011;6302;42.624;23.334;2023-03-01T11:15:40;3.60;;;3.30;;
12474;SDS011;6302;42.624;23.334;2023-03-01T11:18:19;4.40;;;3.80;;
12474;SDS011;6302;42.624;23.334;2023-03-01T11:20:47;4.00;;;3.60;;
12474;SDS011;6302;42.624;23.334;2023-03-01T11:23:15;3.60;;;3.30;;
12474;SDS011;6302;42.624;23.334;2023-03-01T11:25:43;4.33;;;3.70;;
12474;SDS011;6302;42.624;23.334;2023-03-01T11:28:16;4.40;;;3.83;;
12474;SDS011;6302;42.624;23.334;2023-03-01T11:30:45;4.07;;;3.67;;
12474;SDS011;6302;42.624;23.334;2023-03-01T11:33:21;4.20;;;3.80;;
12474;SDS011;6302;42.624;23.334;2023-03-01T11:36:00;4.40;;;3.67;;
12474;SDS011;6302;42.624;23.334;2023-03-01T11:38:29;4.50;;;4.10;;
12474;SDS011;6302;42.624;23.334;2023-03-01T11:41:00;3.70;;;3.40;;
12474;SDS011;6302;42.624;23.334;2023-03-01T11:43:33;3.90;;;3.60;;
12474;SDS011;6302;42.624;23.334;2023-03-01T11:49:10;4.60;;;4.20;;
12474;SDS011;6302;42.624;23.334;2023-03-01T11:51:47;4.60;;;4.07;;
12474;SDS011;6302;42.624;23.334;2023-03-01T11:54:26;5.40;;;4.33;;
12474;SDS011;6302;42.624;23.334;2023-03-01T11:57:08;4.13;;;3.83;;
12474;SDS011;6302;42.624;23.334;2023-03-01T12:00:02;5.13;;;4.27;;
12474;SDS011;6302;42.624;23.334;2023-03-01T12:08:49;4.30;;;3.90;;
12474;SDS011;6302;42.624;23.334;2023-03-01T12:11:28;4.27;;;3.87;;
12474;SDS011;6302;42.624;23.334;2023-03-01T12:14:15;4.10;;;3.80;;
12474;SDS011;6302;42.624;23.334;2023-03-01T12:20:06;3.50;;;3.20;;
12474;SDS011;6302;42.624;23.334;2023-03-01T12:22:46;3.90;;;3.60;;
12474;SDS011;6302;42.624;23.334;2023-03-01T12:25:31;4.33;;;3.83;;
12474;SDS011;6302;42.624;23.334;2023-03-01T12:28:10;3.73;;;3.43;;
12474;SDS011;6302;42.624;23.334;2023-03-01T12:30:55;3.93;;;3.63;;
12474;SDS011;6302;42.624;23.334;2023-03-01T12:33:34;3.60;;;3.30;;
12474;SDS011;6302;42.624;23.334;2023-03-01T12:36:22;3.87;;;3.43;;
12474;SDS011;6302;42.624;23.334;2023-03-01T12:39:07;3.47;;;3.17;;
12474;SDS011;6302;42.624;23.334;2023-03-01T12:41:46;4.10;;;3.77;;
12474;SDS011;6302;42.624;23.334;2023-03-01T12:44:29;3.70;;;3.40;;
12474;SDS011;6302;42.624;23.334;2023-03-01T12:47:10;4.23;;;3.83;;
12474;SDS011;6302;42.624;23.334;2023-03-01T12:49:47;4.73;;;3.33;;
12474;SDS011;6302;42.624;23.334;2023-03-01T12:52:20;3.27;;;3.07;;
12474;SDS011;6302;42.624;23.334;2023-03-01T12:54:53;3.77;;;3.43;;
12474;SDS011;6302;42.624;23.334;2023-03-01T12:57:25;3.80;;;3.50;;
12474;SDS011;6302;42.624;23.334;2023-03-01T13:00:04;3.20;;;2.90;;
12474;SDS011;6302;42.624;23.334;2023-03-01T13:02:45;3.50;;;3.13;;
12474;SDS011;6302;42.624;23.334;2023-03-01T13:05:23;3.30;;;3.10;;
12474;SDS011;6302;42.624;23.334;2023-03-01T13:07:58;3.70;;;3.27;;
12474;SDS011;6302;42.624;23.334;2023-03-01T13:10:38;2.90;;;2.70;;
12474;SDS011;6302;42.624;23.334;2023-03-01T13:13:13;2.93;;;2.73;;
12474;SDS011;6302;42.624;23.334;2023-03-01T13:15:45;3.30;;;3.10;;
12474;SDS011;6302;42.624;23.334;2023-03-01T13:18:27;4.07;;;3.63;;
12474;SDS011;6302;42.624;23.334;2023-03-01T13:20:55;3.80;;;3.43;;
12474;SDS011;6302;42.624;23.334;2023-03-01T13:23:25;3.60;;;3.30;;
12474;SDS011;6302;42.624;23.334;2023-03-01T13:26:04;3.73;;;3.40;;
12474;SDS011;6302;42.624;23.334;2023-03-01T13:28:47;4.20;;;3.80;;
12474;SDS011;6302;42.624;23.334;2023-03-01T13:34:41;3.87;;;3.57;;
12474;SDS011;6302;42.624;23.334;2023-03-01T13:37:17;3.90;;;3.60;;
12474;SDS011;6302;42.624;23.334;2023-03-01T13:39:51;4.30;;;3.90;;
12474;SDS011;6302;42.624;23.334;2023-03-01T13:42:33;6.47;;;4.97;;
12474;SDS011;6302;42.624;23.334;2023-03-01T13:45:03;4.00;;;3.70;;
12474;SDS011;6302;42.624;23.334;2023-03-01T13:47:40;4.70;;;4.20;;
12474;SDS011;6302;42.624;23.334;2023-03-01T13:50:15;6.83;;;5.90;;
12474;SDS011;6302;42.624;23.334;2023-03-01T13:52:44;10.17;;;6.37;;
12474;SDS011;6302;42.624;23.334;2023-03-01T13:55:16;5.03;;;4.20;;
12474;SDS011;6302;42.624;23.334;2023-03-01T13:57:48;6.93;;;5.80;;
12474;SDS011;6302;42.624;23.334;2023-03-01T14:00:32;9.10;;;5.73;;
12474;SDS011;6302;42.624;23.334;2023-03-01T14:03:05;4.77;;;4.33;;
12474;SDS011;6302;42.624;23.334;2023-03-01T14:05:36;5.07;;;3.83;;
12474;SDS011;6302;42.624;23.334;2023-03-01T14:08:04;7.00;;;4.53;;
12474;SDS011;6302;42.624;23.334;2023-03-01T14:10:44;4.47;;;4.07;;
12474;SDS011;6302;42.624;23.334;2023-03-01T14:13:25;5.83;;;4.83;;
12474;SDS011;6302;42.624;23.334;2023-03-01T14:16:05;4.80;;;4.30;;
12474;SDS011;6302;42.624;23.334;2023-03-01T14:18:44;5.23;;;3.90;;
12474;SDS011;6302;42.624;23.334;2023-03-01T14:21:18;4.73;;;4.23;;
12474;SDS011;6302;42.624;23.334;2023-03-01T14:23:45;4.30;;;3.87;;
12474;SDS011;6302;42.624;23.334;2023-03-01T14:26:12;4.07;;;3.67;;
12474;SDS011;6302;42.624;23.334;2023-03-01T14:28:41;5.57;;;4.13;;
12474;SDS011;6302;42.624;23.334;2023-03-01T14:34:16;5.77;;;4.60;;
12474;SDS011;6302;42.624;23.334;2023-03-01T14:36:46;7.30;;;4.53;;
12474;SDS011;6302;42.624;23.334;2023-03-01T14:39:16;6.10;;;4.83;;
12474;SDS011;6302;42.624;23.334;2023-03-01T14:41:44;5.30;;;3.90;;
12474;SDS011;6302;42.624;23.334;2023-03-01T14:44:14;7.20;;;4.83;;
12474;SDS011;6302;42.624;23.334;2023-03-01T14:46:46;5.40;;;4.10;;
12474;SDS011;6302;42.624;23.334;2023-03-01T14:49:14;6.43;;;3.70;;
12474;SDS011;6302;42.624;23.334;2023-03-01T14:51:46;4.40;;;3.90;;
12474;SDS011;6302;42.624;23.334;2023-03-01T14:54:21;5.10;;;3.87;;
12474;SDS011;6302;42.624;23.334;2023-03-01T14:56:52;5.80;;;3.87;;
12474;SDS011;6302;42.624;23.334;2023-03-01T14:59:22;5.50;;;4.17;;
12474;SDS011;6302;42.624;23.334;2023-03-01T15:01:49;4.57;;;4.00;;
12474;SDS011;6302;42.624;23.334;2023-03-01T15:04:17;6.30;;;4.37;;
12474;SDS011;6302;42.624;23.334;2023-03-01T15:06:45;4.40;;;4.00;;
12474;SDS011;6302;42.624;23.334;2023-03-01T15:09:13;5.03;;;3.90;;
12474;SDS011;6302;42.624;23.334;2023-03-01T15:11:42;6.07;;;4.53;;
12474;SDS011;6302;42.624;23.334;2023-03-01T15:14:27;6.70;;;5.00;;
12474;SDS011;6302;42.624;23.334;2023-03-01T15:16:55;4.60;;;3.90;;
12474;SDS011;6302;42.624;23.334;2023-03-01T15:19:23;5.90;;;5.30;;
12474;SDS011;6302;42.624;23.334;2023-03-01T15:21:54;4.83;;;4.43;;
12474;SDS011;6302;42.624;23.334;2023-03-01T15:24:23;6.23;;;4.63;;
12474;SDS011;6302;42.624;23.334;2023-03-01T15:26:53;5.43;;;4.53;;
12474;SDS011;6302;42.624;23.334;2023-03-01T15:29:23;5.17;;;4.57;;